sensor_id;sensor_type;location;lat;lon;timestamp;P1;durP1;ratioP1;P2;durP2;ratioP2
78116;SDS011;69042;59.120;37.904;2023-07-09T00:00:53;8.60;;;4.60;;
78116;SDS011;69042;59.120;37.904;2023-07-09T00:03:38;9.38;;;4.90;;
78116;SDS011;69042;59.120;37.904;2023-07-09T00:06:04;8.68;;;4.80;;
78116;SDS011;69042;59.120;37.904;2023-07-09T00:08:52;9.45;;;4.60;;
78116;SDS011;69042;59.120;37.904;2023-07-09T00:14:22;10.82;;;4.50;;
78116;SDS011;69042;59.120;37.904;2023-07-09T00:16:48;9.10;;;4.93;;
78116;SDS011;69042;59.120;37.904;2023-07-09T00:19:33;8.60;;;4.53;;
78116;SDS011;69042;59.120;37.904;2023-07-09T00:21:59;7.13;;;4.18;;
78116;SDS011;69042;59.120;37.904;2023-07-09T00:24:44;7.25;;;4.28;;
78116;SDS011;69042;59.120;37.904;2023-07-09T00:27:13;7.05;;;4.30;;
78116;SDS011;69042;59.120;37.904;2023-07-09T00:30:01;8.90;;;4.60;;
78116;SDS011;69042;59.120;37.904;2023-07-09T00:32:28;6.60;;;4.05;;
78116;SDS011;69042;59.120;37.904;2023-07-09T00:35:13;7.57;;;4.38;;
78116;SDS011;69042;59.120;37.904;2023-07-09T00:41:41;7.53;;;4.10;;
78116;SDS011;69042;59.120;37.904;2023-07-09T00:44:29;8.15;;;4.70;;
78116;SDS011;69042;59.120;37.904;2023-07-09T00:49:31;6.57;;;3.92;;
78116;SDS011;69042;59.120;37.904;2023-07-09T00:55:08;8.52;;;4.45;;
78116;SDS011;69042;59.120;37.904;2023-07-09T01:00:45;8.88;;;3.70;;
78116;SDS011;69042;59.120;37.904;2023-07-09T01:03:38;7.63;;;3.85;;
78116;SDS011;69042;59.120;37.904;2023-07-09T01:06:37;9.48;;;4.50;;
78116;SDS011;69042;59.120;37.904;2023-07-09T01:09:08;12.55;;;4.30;;
78116;SDS011;69042;59.120;37.904;2023-07-09T01:11:53;11.00;;;4.75;;
78116;SDS011;69042;59.120;37.904;2023-07-09T01:14:38;8.38;;;4.32;;
78116;SDS011;69042;59.120;37.904;2023-07-09T01:17:05;10.23;;;4.40;;
78116;SDS011;69042;59.120;37.904;2023-07-09T01:19:40;8.13;;;4.03;;
78116;SDS011;69042;59.120;37.904;2023-07-09T01:22:11;7.43;;;4.03;;
78116;SDS011;69042;59.120;37.904;2023-07-09T01:27:40;8.75;;;4.20;;
78116;SDS011;69042;59.120;37.904;2023-07-09T01:33:07;10.63;;;4.40;;
78116;SDS011;69042;59.120;37.904;2023-07-09T01:35:52;8.32;;;4.13;;
78116;SDS011;69042;59.120;37.904;2023-07-09T01:38:21;11.05;;;4.60;;
78116;SDS011;69042;59.120;37.904;2023-07-09T01:41:24;10.82;;;4.38;;
78116;SDS011;69042;59.120;37.904;2023-07-09T01:44:29;8.98;;;4.38;;
78116;SDS011;69042;59.120;37.904;2023-07-09T01:46:55;9.93;;;4.65;;
78116;SDS011;69042;59.120;37.904;2023-07-09T01:49:40;12.02;;;5.22;;
78116;SDS011;69042;59.120;37.904;2023-07-09T01:52:06;13.48;;;5.10;;
78116;SDS011;69042;59.120;37.904;2023-07-09T01:54:51;13.55;;;5.82;;
78116;SDS011;69042;59.120;37.904;2023-07-09T01:57:36;14.55;;;5.30;;
78116;SDS011;69042;59.120;37.904;2023-07-09T02:00:20;14.15;;;5.55;;
78116;SDS011;69042;59.120;37.904;2023-07-09T02:02:48;11.85;;;4.95;;
78116;SDS011;69042;59.120;37.904;2023-07-09T02:05:16;10.23;;;4.53;;
78116;SDS011;69042;59.120;37.904;2023-07-09T02:08:03;9.48;;;4.65;;
78116;SDS011;69042;59.120;37.904;2023-07-09T02:10:48;10.45;;;4.15;;
78116;SDS011;69042;59.120;37.904;2023-07-09T02:13:34;10.40;;;4.43;;
78116;SDS011;69042;59.120;37.904;2023-07-09T02:16:18;10.15;;;4.70;;
78116;SDS011;69042;59.120;37.904;2023-07-09T02:18:44;8.27;;;4.80;;
78116;SDS011;69042;59.120;37.904;2023-07-09T02:21:10;13.35;;;5.53;;
78116;SDS011;69042;59.120;37.904;2023-07-09T02:24:14;11.48;;;4.68;;
78116;SDS011;69042;59.120;37.904;2023-07-09T02:26:59;14.55;;;5.32;;
78116;SDS011;69042;59.120;37.904;2023-07-09T02:32:22;15.93;;;5.07;;
78116;SDS011;69042;59.120;37.904;2023-07-09T02:35:08;12.98;;;5.72;;
78116;SDS011;69042;59.120;37.904;2023-07-09T02:37:34;18.83;;;6.53;;
78116;SDS011;69042;59.120;37.904;2023-07-09T02:40:19;17.02;;;5.93;;
78116;SDS011;69042;59.120;37.904;2023-07-09T02:43:03;14.90;;;5.70;;
78116;SDS011;69042;59.120;37.904;2023-07-09T02:46:07;16.67;;;5.75;;
78116;SDS011;69042;59.120;37.904;2023-07-09T02:48:33;24.83;;;6.35;;
78116;SDS011;69042;59.120;37.904;2023-07-09T02:53:44;13.30;;;5.82;;
78116;SDS011;69042;59.120;37.904;2023-07-09T02:59:14;15.13;;;6.50;;
78116;SDS011;69042;59.120;37.904;2023-07-09T03:02:18;13.85;;;6.57;;
78116;SDS011;69042;59.120;37.904;2023-07-09T03:04:44;12.80;;;6.15;;
78116;SDS011;69042;59.120;37.904;2023-07-09T03:07:28;15.63;;;5.72;;
78116;SDS011;69042;59.120;37.904;2023-07-09T03:10:13;16.30;;;5.75;;
78116;SDS011;69042;59.120;37.904;2023-07-09T03:12:39;15.05;;;6.10;;
78116;SDS011;69042;59.120;37.904;2023-07-09T03:15:24;17.85;;;6.20;;
78116;SDS011;69042;59.120;37.904;2023-07-09T03:18:09;12.95;;;5.30;;
78116;SDS011;69042;59.120;37.904;2023-07-09T03:21:12;12.05;;;5.57;;
78116;SDS011;69042;59.120;37.904;2023-07-09T03:27:02;12.05;;;5.35;;
78116;SDS011;69042;59.120;37.904;2023-07-09T03:29:47;12.27;;;5.50;;
78116;SDS011;69042;59.120;37.904;2023-07-09T03:33:10;11.35;;;5.53;;
78116;SDS011;69042;59.120;37.904;2023-07-09T03:35:37;14.23;;;6.80;;
78116;SDS011;69042;59.120;37.904;2023-07-09T03:38:04;8.93;;;5.50;;
78116;SDS011;69042;59.120;37.904;2023-07-09T03:40:31;12.43;;;5.90;;
78116;SDS011;69042;59.120;37.904;2023-07-09T03:42:57;10.68;;;5.95;;
78116;SDS011;69042;59.120;37.904;2023-07-09T03:45:43;15.07;;;6.63;;
78116;SDS011;69042;59.120;37.904;2023-07-09T03:48:28;15.13;;;6.60;;
78116;SDS011;69042;59.120;37.904;2023-07-09T03:50:54;16.15;;;6.63;;
78116;SDS011;69042;59.120;37.904;2023-07-09T03:53:20;21.02;;;7.63;;
78116;SDS011;69042;59.120;37.904;2023-07-09T03:55:50;14.63;;;7.28;;
78116;SDS011;69042;59.120;37.904;2023-07-09T03:58:18;16.95;;;7.28;;
78116;SDS011;69042;59.120;37.904;2023-07-09T04:01:03;20.17;;;7.85;;
78116;SDS011;69042;59.120;37.904;2023-07-09T04:03:48;22.70;;;10.07;;
78116;SDS011;69042;59.120;37.904;2023-07-09T04:09:54;25.88;;;12.55;;
78116;SDS011;69042;59.120;37.904;2023-07-09T04:12:39;24.92;;;11.20;;
78116;SDS011;69042;59.120;37.904;2023-07-09T04:15:43;25.50;;;10.85;;
78116;SDS011;69042;59.120;37.904;2023-07-09T04:18:09;28.58;;;10.68;;
78116;SDS011;69042;59.120;37.904;2023-07-09T04:20:54;18.67;;;9.05;;
78116;SDS011;69042;59.120;37.904;2023-07-09T04:23:38;27.48;;;10.75;;
78116;SDS011;69042;59.120;37.904;2023-07-09T04:26:22;29.83;;;11.63;;
78116;SDS011;69042;59.120;37.904;2023-07-09T04:28:49;23.90;;;10.65;;
78116;SDS011;69042;59.120;37.904;2023-07-09T04:31:34;18.77;;;7.57;;
78116;SDS011;69042;59.120;37.904;2023-07-09T04:34:00;15.93;;;7.45;;
78116;SDS011;69042;59.120;37.904;2023-07-09T04:36:26;16.20;;;7.57;;
78116;SDS011;69042;59.120;37.904;2023-07-09T04:38:52;12.70;;;7.00;;
78116;SDS011;69042;59.120;37.904;2023-07-09T04:41:36;14.10;;;7.20;;
78116;SDS011;69042;59.120;37.904;2023-07-09T04:44:02;20.85;;;8.82;;
78116;SDS011;69042;59.120;37.904;2023-07-09T04:46:47;15.63;;;7.38;;
78116;SDS011;69042;59.120;37.904;2023-07-09T04:49:14;14.80;;;7.35;;
78116;SDS011;69042;59.120;37.904;2023-07-09T04:51:40;11.75;;;6.38;;
78116;SDS011;69042;59.120;37.904;2023-07-09T04:54:44;11.27;;;5.88;;
78116;SDS011;69042;59.120;37.904;2023-07-09T04:57:29;13.88;;;6.53;;
78116;SDS011;69042;59.120;37.904;2023-07-09T05:00:14;15.05;;;7.38;;
78116;SDS011;69042;59.120;37.904;2023-07-09T05:02:59;13.70;;;9.05;;
78116;SDS011;69042;59.120;37.904;2023-07-09T05:05:25;17.55;;;8.63;;
78116;SDS011;69042;59.120;37.904;2023-07-09T05:08:28;17.80;;;10.38;;
78116;SDS011;69042;59.120;37.904;2023-07-09T05:10:55;14.18;;;8.75;;
78116;SDS011;69042;59.120;37.904;2023-07-09T05:13:41;17.58;;;8.82;;
78116;SDS011;69042;59.120;37.904;2023-07-09T05:16:07;17.25;;;8.50;;
78116;SDS011;69042;59.120;37.904;2023-07-09T05:18:34;16.42;;;8.90;;
78116;SDS011;69042;59.120;37.904;2023-07-09T05:21:00;15.73;;;8.75;;
78116;SDS011;69042;59.120;37.904;2023-07-09T05:26:10;13.48;;;7.90;;
78116;SDS011;69042;59.120;37.904;2023-07-09T05:32:17;12.30;;;6.80;;
78116;SDS011;69042;59.120;37.904;2023-07-09T05:35:02;11.52;;;6.93;;
78116;SDS011;69042;59.120;37.904;2023-07-09T05:37:29;10.85;;;6.60;;
78116;SDS011;69042;59.120;37.904;2023-07-09T05:39:56;12.45;;;6.85;;
78116;SDS011;69042;59.120;37.904;2023-07-09T05:42:22;11.88;;;6.63;;
78116;SDS011;69042;59.120;37.904;2023-07-09T05:45:07;10.63;;;6.35;;
78116;SDS011;69042;59.120;37.904;2023-07-09T05:47:33;10.40;;;6.32;;
78116;SDS011;69042;59.120;37.904;2023-07-09T05:50:18;14.25;;;6.13;;
78116;SDS011;69042;59.120;37.904;2023-07-09T05:52:44;10.38;;;6.13;;
78116;SDS011;69042;59.120;37.904;2023-07-09T05:55:47;9.15;;;5.68;;
78116;SDS011;69042;59.120;37.904;2023-07-09T05:58:13;8.15;;;4.65;;
78116;SDS011;69042;59.120;37.904;2023-07-09T06:00:40;8.80;;;5.15;;
78116;SDS011;69042;59.120;37.904;2023-07-09T06:03:25;11.45;;;5.38;;
78116;SDS011;69042;59.120;37.904;2023-07-09T06:06:11;10.32;;;5.78;;
78116;SDS011;69042;59.120;37.904;2023-07-09T06:08:55;10.75;;;5.30;;
78116;SDS011;69042;59.120;37.904;2023-07-09T06:11:21;10.85;;;5.00;;
78116;SDS011;69042;59.120;37.904;2023-07-09T06:13:49;9.30;;;5.50;;
78116;SDS011;69042;59.120;37.904;2023-07-09T06:16:15;9.57;;;5.35;;
78116;SDS011;69042;59.120;37.904;2023-07-09T06:19:00;6.85;;;4.30;;
78116;SDS011;69042;59.120;37.904;2023-07-09T06:25:25;7.60;;;4.03;;
78116;SDS011;69042;59.120;37.904;2023-07-09T06:27:51;6.50;;;3.90;;
78116;SDS011;69042;59.120;37.904;2023-07-09T06:30:17;9.05;;;3.80;;
78116;SDS011;69042;59.120;37.904;2023-07-09T06:33:02;9.60;;;4.00;;
78116;SDS011;69042;59.120;37.904;2023-07-09T06:35:47;11.75;;;5.40;;
78116;SDS011;69042;59.120;37.904;2023-07-09T06:38:17;9.43;;;5.72;;
78116;SDS011;69042;59.120;37.904;2023-07-09T06:40:44;6.07;;;3.55;;
78116;SDS011;69042;59.120;37.904;2023-07-09T06:43:29;9.25;;;5.05;;
78116;SDS011;69042;59.120;37.904;2023-07-09T06:46:14;8.20;;;3.72;;
78116;SDS011;69042;59.120;37.904;2023-07-09T06:48:41;8.85;;;4.25;;
78116;SDS011;69042;59.120;37.904;2023-07-09T06:51:07;7.43;;;4.00;;
78116;SDS011;69042;59.120;37.904;2023-07-09T06:56:56;6.10;;;3.70;;
78116;SDS011;69042;59.120;37.904;2023-07-09T07:02:25;6.63;;;3.95;;
78116;SDS011;69042;59.120;37.904;2023-07-09T07:08:14;7.22;;;3.88;;
78116;SDS011;69042;59.120;37.904;2023-07-09T07:10:43;7.10;;;3.60;;
78116;SDS011;69042;59.120;37.904;2023-07-09T07:13:31;6.55;;;3.80;;
78116;SDS011;69042;59.120;37.904;2023-07-09T07:16:36;6.15;;;3.83;;
78116;SDS011;69042;59.120;37.904;2023-07-09T07:19:21;6.65;;;3.47;;
78116;SDS011;69042;59.120;37.904;2023-07-09T07:22:06;6.70;;;3.40;;
78116;SDS011;69042;59.120;37.904;2023-07-09T07:24:51;8.65;;;4.43;;
78116;SDS011;69042;59.120;37.904;2023-07-09T07:27:17;14.93;;;6.68;;
78116;SDS011;69042;59.120;37.904;2023-07-09T07:30:02;20.00;;;9.35;;
78116;SDS011;69042;59.120;37.904;2023-07-09T07:36:09;8.73;;;4.65;;
78116;SDS011;69042;59.120;37.904;2023-07-09T07:41:41;10.77;;;3.67;;
78116;SDS011;69042;59.120;37.904;2023-07-09T07:47:10;6.93;;;3.40;;
78116;SDS011;69042;59.120;37.904;2023-07-09T07:49:56;6.97;;;4.25;;
78116;SDS011;69042;59.120;37.904;2023-07-09T07:56:03;8.98;;;4.05;;
78116;SDS011;69042;59.120;37.904;2023-07-09T07:58:29;7.50;;;3.75;;
78116;SDS011;69042;59.120;37.904;2023-07-09T08:00:57;9.75;;;3.70;;
78116;SDS011;69042;59.120;37.904;2023-07-09T08:03:42;13.95;;;5.38;;
78116;SDS011;69042;59.120;37.904;2023-07-09T08:06:08;10.65;;;4.80;;
78116;SDS011;69042;59.120;37.904;2023-07-09T08:08:53;7.93;;;3.63;;
78116;SDS011;69042;59.120;37.904;2023-07-09T08:11:37;32.47;;;14.23;;
78116;SDS011;69042;59.120;37.904;2023-07-09T08:14:22;19.50;;;8.40;;
78116;SDS011;69042;59.120;37.904;2023-07-09T08:17:07;12.27;;;6.43;;
78116;SDS011;69042;59.120;37.904;2023-07-09T08:19:53;7.85;;;3.88;;
78116;SDS011;69042;59.120;37.904;2023-07-09T08:22:38;11.57;;;5.32;;
78116;SDS011;69042;59.120;37.904;2023-07-09T08:25:23;9.63;;;5.10;;
78116;SDS011;69042;59.120;37.904;2023-07-09T08:28:07;11.82;;;4.88;;
78116;SDS011;69042;59.120;37.904;2023-07-09T08:31:11;12.15;;;6.50;;
78116;SDS011;69042;59.120;37.904;2023-07-09T08:33:55;9.25;;;4.95;;
78116;SDS011;69042;59.120;37.904;2023-07-09T08:36:21;8.18;;;4.28;;
78116;SDS011;69042;59.120;37.904;2023-07-09T08:39:06;14.38;;;6.13;;
78116;SDS011;69042;59.120;37.904;2023-07-09T08:50:27;6.78;;;3.67;;
78116;SDS011;69042;59.120;37.904;2023-07-09T08:53:25;14.82;;;6.40;;
78116;SDS011;69042;59.120;37.904;2023-07-09T08:56:13;16.10;;;7.47;;
78116;SDS011;69042;59.120;37.904;2023-07-09T08:59:00;17.60;;;9.05;;
78116;SDS011;69042;59.120;37.904;2023-07-09T09:01:31;29.55;;;13.07;;
78116;SDS011;69042;59.120;37.904;2023-07-09T09:06:45;21.13;;;8.52;;
78116;SDS011;69042;59.120;37.904;2023-07-09T09:11:52;16.23;;;6.40;;
78116;SDS011;69042;59.120;37.904;2023-07-09T09:21:32;15.63;;;7.53;;
78116;SDS011;69042;59.120;37.904;2023-07-09T09:24:20;12.40;;;5.10;;
78116;SDS011;69042;59.120;37.904;2023-07-09T09:27:13;8.77;;;3.78;;
78116;SDS011;69042;59.120;37.904;2023-07-09T09:29:39;17.95;;;8.52;;
78116;SDS011;69042;59.120;37.904;2023-07-09T09:32:29;22.20;;;11.15;;
78116;SDS011;69042;59.120;37.904;2023-07-09T09:35:11;16.48;;;7.55;;
78116;SDS011;69042;59.120;37.904;2023-07-09T09:37:57;9.98;;;4.32;;
78116;SDS011;69042;59.120;37.904;2023-07-09T09:41:01;11.27;;;5.30;;
78116;SDS011;69042;59.120;37.904;2023-07-09T09:43:31;11.30;;;5.03;;
78116;SDS011;69042;59.120;37.904;2023-07-09T09:45:58;14.77;;;5.43;;
78116;SDS011;69042;59.120;37.904;2023-07-09T09:48:44;6.63;;;3.53;;
78116;SDS011;69042;59.120;37.904;2023-07-09T09:51:47;7.88;;;3.55;;
78116;SDS011;69042;59.120;37.904;2023-07-09T09:54:33;6.88;;;3.70;;
78116;SDS011;69042;59.120;37.904;2023-07-09T09:57:19;9.15;;;4.13;;
78116;SDS011;69042;59.120;37.904;2023-07-09T09:59:47;12.27;;;5.50;;
78116;SDS011;69042;59.120;37.904;2023-07-09T10:02:24;14.80;;;5.80;;
78116;SDS011;69042;59.120;37.904;2023-07-09T10:05:12;12.18;;;5.32;;
78116;SDS011;69042;59.120;37.904;2023-07-09T10:08:03;14.98;;;6.85;;
78116;SDS011;69042;59.120;37.904;2023-07-09T10:10:32;10.98;;;4.40;;
78116;SDS011;69042;59.120;37.904;2023-07-09T10:13:55;8.80;;;3.50;;
78116;SDS011;69042;59.120;37.904;2023-07-09T10:16:36;7.95;;;4.20;;
78116;SDS011;69042;59.120;37.904;2023-07-09T10:19:39;8.77;;;3.58;;
78116;SDS011;69042;59.120;37.904;2023-07-09T10:35:35;9.27;;;3.95;;
78116;SDS011;69042;59.120;37.904;2023-07-09T10:38:10;11.70;;;6.20;;
78116;SDS011;69042;59.120;37.904;2023-07-09T10:40:57;7.43;;;3.47;;
78116;SDS011;69042;59.120;37.904;2023-07-09T10:44:11;8.95;;;4.30;;
78116;SDS011;69042;59.120;37.904;2023-07-09T10:47:01;12.35;;;5.18;;
78116;SDS011;69042;59.120;37.904;2023-07-09T10:49:36;14.18;;;5.20;;
78116;SDS011;69042;59.120;37.904;2023-07-09T10:52:31;9.65;;;3.90;;
78116;SDS011;69042;59.120;37.904;2023-07-09T10:55:04;11.38;;;5.15;;
78116;SDS011;69042;59.120;37.904;2023-07-09T11:00:55;7.28;;;2.85;;
78116;SDS011;69042;59.120;37.904;2023-07-09T11:06:35;4.82;;;2.08;;
78116;SDS011;69042;59.120;37.904;2023-07-09T11:09:11;7.82;;;3.20;;
78116;SDS011;69042;59.120;37.904;2023-07-09T11:12:39;9.18;;;4.30;;
78116;SDS011;69042;59.120;37.904;2023-07-09T11:15:13;5.65;;;2.40;;
78116;SDS011;69042;59.120;37.904;2023-07-09T11:17:47;6.18;;;2.58;;
78116;SDS011;69042;59.120;37.904;2023-07-09T11:23:47;10.77;;;4.57;;
78116;SDS011;69042;59.120;37.904;2023-07-09T11:29:17;10.80;;;4.70;;
78116;SDS011;69042;59.120;37.904;2023-07-09T11:32:08;5.65;;;2.22;;
78116;SDS011;69042;59.120;37.904;2023-07-09T11:34:54;7.35;;;2.60;;
78116;SDS011;69042;59.120;37.904;2023-07-09T11:37:23;11.05;;;3.70;;
78116;SDS011;69042;59.120;37.904;2023-07-09T11:40:29;9.95;;;4.15;;
78116;SDS011;69042;59.120;37.904;2023-07-09T11:46:38;6.00;;;2.60;;
78116;SDS011;69042;59.120;37.904;2023-07-09T11:49:41;7.10;;;2.60;;
78116;SDS011;69042;59.120;37.904;2023-07-09T11:57:41;5.65;;;2.20;;
78116;SDS011;69042;59.120;37.904;2023-07-09T12:03:06;5.18;;;2.13;;
78116;SDS011;69042;59.120;37.904;2023-07-09T12:09:38;13.00;;;5.05;;
78116;SDS011;69042;59.120;37.904;2023-07-09T12:15:15;6.22;;;2.50;;
78116;SDS011;69042;59.120;37.904;2023-07-09T12:17:52;8.52;;;2.72;;
78116;SDS011;69042;59.120;37.904;2023-07-09T12:20:20;4.70;;;1.80;;
78116;SDS011;69042;59.120;37.904;2023-07-09T12:26:05;4.35;;;2.03;;
78116;SDS011;69042;59.120;37.904;2023-07-09T12:28:32;8.43;;;3.58;;
78116;SDS011;69042;59.120;37.904;2023-07-09T12:31:35;6.30;;;2.17;;
78116;SDS011;69042;59.120;37.904;2023-07-09T12:34:01;14.00;;;5.97;;
78116;SDS011;69042;59.120;37.904;2023-07-09T12:36:28;13.93;;;5.43;;
78116;SDS011;69042;59.120;37.904;2023-07-09T12:39:00;9.88;;;3.60;;
78116;SDS011;69042;59.120;37.904;2023-07-09T12:41:46;8.27;;;3.20;;
78116;SDS011;69042;59.120;37.904;2023-07-09T12:47:54;9.40;;;4.05;;
78116;SDS011;69042;59.120;37.904;2023-07-09T12:50:39;4.40;;;2.00;;
78116;SDS011;69042;59.120;37.904;2023-07-09T12:53:13;5.72;;;1.60;;
78116;SDS011;69042;59.120;37.904;2023-07-09T12:58:46;8.48;;;1.40;;
78116;SDS011;69042;59.120;37.904;2023-07-09T13:01:32;3.13;;;1.23;;
78116;SDS011;69042;59.120;37.904;2023-07-09T13:04:18;3.00;;;1.10;;
78116;SDS011;69042;59.120;37.904;2023-07-09T13:06:45;3.63;;;1.13;;
78116;SDS011;69042;59.120;37.904;2023-07-09T13:09:48;3.10;;;1.20;;
78116;SDS011;69042;59.120;37.904;2023-07-09T13:15:40;5.15;;;1.60;;
78116;SDS011;69042;59.120;37.904;2023-07-09T13:18:32;3.55;;;1.00;;
78116;SDS011;69042;59.120;37.904;2023-07-09T13:21:17;3.47;;;1.10;;
78116;SDS011;69042;59.120;37.904;2023-07-09T13:26:35;3.13;;;0.95;;
78116;SDS011;69042;59.120;37.904;2023-07-09T13:29:01;2.70;;;0.90;;
78116;SDS011;69042;59.120;37.904;2023-07-09T13:31:28;2.78;;;0.90;;
78116;SDS011;69042;59.120;37.904;2023-07-09T13:33:56;3.83;;;0.95;;
78116;SDS011;69042;59.120;37.904;2023-07-09T13:36:43;3.50;;;1.20;;
78116;SDS011;69042;59.120;37.904;2023-07-09T13:39:10;3.40;;;1.10;;
78116;SDS011;69042;59.120;37.904;2023-07-09T13:41:38;3.63;;;0.90;;
78116;SDS011;69042;59.120;37.904;2023-07-09T13:47:45;3.00;;;0.82;;
78116;SDS011;69042;59.120;37.904;2023-07-09T13:50:50;2.30;;;0.80;;
78116;SDS011;69042;59.120;37.904;2023-07-09T13:53:21;3.53;;;0.98;;
78116;SDS011;69042;59.120;37.904;2023-07-09T13:55:49;4.78;;;1.40;;
78116;SDS011;69042;59.120;37.904;2023-07-09T13:58:34;3.33;;;1.00;;
78116;SDS011;69042;59.120;37.904;2023-07-09T14:01:08;3.55;;;0.90;;
78116;SDS011;69042;59.120;37.904;2023-07-09T14:03:37;5.38;;;1.30;;
78116;SDS011;69042;59.120;37.904;2023-07-09T14:06:21;4.18;;;1.00;;
78116;SDS011;69042;59.120;37.904;2023-07-09T14:08:47;4.57;;;0.93;;
78116;SDS011;69042;59.120;37.904;2023-07-09T14:11:32;3.67;;;1.00;;
78116;SDS011;69042;59.120;37.904;2023-07-09T14:17:04;5.65;;;1.02;;
78116;SDS011;69042;59.120;37.904;2023-07-09T14:20:10;2.65;;;1.00;;
78116;SDS011;69042;59.120;37.904;2023-07-09T14:22:56;5.13;;;1.35;;
78116;SDS011;69042;59.120;37.904;2023-07-09T14:26:00;3.78;;;1.00;;
78116;SDS011;69042;59.120;37.904;2023-07-09T14:28:26;3.45;;;1.00;;
78116;SDS011;69042;59.120;37.904;2023-07-09T14:33:59;3.83;;;1.50;;
78116;SDS011;69042;59.120;37.904;2023-07-09T14:40:37;3.35;;;1.15;;
78116;SDS011;69042;59.120;37.904;2023-07-09T14:43:23;4.45;;;1.13;;
78116;SDS011;69042;59.120;37.904;2023-07-09T14:46:07;3.67;;;1.10;;
78116;SDS011;69042;59.120;37.904;2023-07-09T14:51:37;3.15;;;1.10;;
78116;SDS011;69042;59.120;37.904;2023-07-09T14:54:07;2.95;;;1.00;;
78116;SDS011;69042;59.120;37.904;2023-07-09T14:57:17;3.83;;;1.33;;
78116;SDS011;69042;59.120;37.904;2023-07-09T15:00:06;4.55;;;1.20;;
78116;SDS011;69042;59.120;37.904;2023-07-09T15:02:52;3.72;;;1.50;;
78116;SDS011;69042;59.120;37.904;2023-07-09T15:05:37;3.42;;;1.00;;
78116;SDS011;69042;59.120;37.904;2023-07-09T15:08:11;3.70;;;1.00;;
78116;SDS011;69042;59.120;37.904;2023-07-09T15:10:58;5.35;;;1.40;;
78116;SDS011;69042;59.120;37.904;2023-07-09T15:13:43;3.35;;;1.40;;
78116;SDS011;69042;59.120;37.904;2023-07-09T15:16:27;5.20;;;1.50;;
78116;SDS011;69042;59.120;37.904;2023-07-09T15:19:16;5.78;;;1.42;;
78116;SDS011;69042;59.120;37.904;2023-07-09T15:22:03;4.93;;;1.13;;
78116;SDS011;69042;59.120;37.904;2023-07-09T15:24:31;2.78;;;1.00;;
78116;SDS011;69042;59.120;37.904;2023-07-09T15:27:18;2.80;;;0.80;;
78116;SDS011;69042;59.120;37.904;2023-07-09T15:29:44;3.83;;;0.93;;
78116;SDS011;69042;59.120;37.904;2023-07-09T15:32:10;3.50;;;0.80;;
78116;SDS011;69042;59.120;37.904;2023-07-09T15:34:36;4.95;;;0.93;;
78116;SDS011;69042;59.120;37.904;2023-07-09T15:37:20;3.25;;;1.00;;
78116;SDS011;69042;59.120;37.904;2023-07-09T15:40:27;4.00;;;1.13;;
78116;SDS011;69042;59.120;37.904;2023-07-09T15:43:11;4.40;;;1.10;;
78116;SDS011;69042;59.120;37.904;2023-07-09T15:45:58;4.53;;;1.30;;
78116;SDS011;69042;59.120;37.904;2023-07-09T15:48:44;3.80;;;1.30;;
78116;SDS011;69042;59.120;37.904;2023-07-09T15:51:11;3.47;;;1.20;;
78116;SDS011;69042;59.120;37.904;2023-07-09T15:53:37;5.03;;;1.33;;
78116;SDS011;69042;59.120;37.904;2023-07-09T16:02:13;3.85;;;1.30;;
78116;SDS011;69042;59.120;37.904;2023-07-09T16:04:43;4.47;;;1.30;;
78116;SDS011;69042;59.120;37.904;2023-07-09T16:07:10;5.72;;;2.03;;
78116;SDS011;69042;59.120;37.904;2023-07-09T16:12:40;4.68;;;1.25;;
78116;SDS011;69042;59.120;37.904;2023-07-09T16:17:51;4.88;;;1.27;;
78116;SDS011;69042;59.120;37.904;2023-07-09T16:23:22;3.50;;;1.00;;
78116;SDS011;69042;59.120;37.904;2023-07-09T16:25:48;4.50;;;1.35;;
78116;SDS011;69042;59.120;37.904;2023-07-09T16:28:15;3.10;;;1.00;;
78116;SDS011;69042;59.120;37.904;2023-07-09T16:31:02;3.85;;;1.35;;
78116;SDS011;69042;59.120;37.904;2023-07-09T16:33:46;3.83;;;1.30;;
78116;SDS011;69042;59.120;37.904;2023-07-09T16:36:14;3.03;;;0.90;;
78116;SDS011;69042;59.120;37.904;2023-07-09T16:39:01;3.63;;;1.10;;
78116;SDS011;69042;59.120;37.904;2023-07-09T16:41:30;5.30;;;1.30;;
78116;SDS011;69042;59.120;37.904;2023-07-09T16:43:56;3.55;;;0.90;;
78116;SDS011;69042;59.120;37.904;2023-07-09T16:46:41;3.00;;;0.90;;
78116;SDS011;69042;59.120;37.904;2023-07-09T16:52:23;3.60;;;0.93;;
78116;SDS011;69042;59.120;37.904;2023-07-09T16:54:51;3.95;;;0.90;;
78116;SDS011;69042;59.120;37.904;2023-07-09T16:57:23;3.05;;;1.00;;
78116;SDS011;69042;59.120;37.904;2023-07-09T17:03:04;3.47;;;0.90;;
78116;SDS011;69042;59.120;37.904;2023-07-09T17:05:50;3.30;;;0.90;;
78116;SDS011;69042;59.120;37.904;2023-07-09T17:08:35;3.40;;;1.00;;
78116;SDS011;69042;59.120;37.904;2023-07-09T17:11:19;4.47;;;0.90;;
78116;SDS011;69042;59.120;37.904;2023-07-09T17:14:04;4.15;;;0.90;;
78116;SDS011;69042;59.120;37.904;2023-07-09T17:16:30;2.83;;;0.73;;
78116;SDS011;69042;59.120;37.904;2023-07-09T17:19:15;3.78;;;1.15;;
78116;SDS011;69042;59.120;37.904;2023-07-09T17:21:42;2.28;;;0.77;;
78116;SDS011;69042;59.120;37.904;2023-07-09T17:24:46;3.33;;;0.80;;
78116;SDS011;69042;59.120;37.904;2023-07-09T17:27:13;4.18;;;1.10;;
78116;SDS011;69042;59.120;37.904;2023-07-09T17:29:40;4.28;;;1.40;;
78116;SDS011;69042;59.120;37.904;2023-07-09T17:32:26;3.72;;;1.10;;
78116;SDS011;69042;59.120;37.904;2023-07-09T17:34:52;3.90;;;1.00;;
78116;SDS011;69042;59.120;37.904;2023-07-09T17:37:18;3.85;;;0.90;;
78116;SDS011;69042;59.120;37.904;2023-07-09T17:40:13;3.05;;;0.85;;
78116;SDS011;69042;59.120;37.904;2023-07-09T17:43:00;3.00;;;1.00;;
78116;SDS011;69042;59.120;37.904;2023-07-09T17:45:28;3.13;;;0.90;;
78116;SDS011;69042;59.120;37.904;2023-07-09T17:47:55;3.67;;;0.98;;
78116;SDS011;69042;59.120;37.904;2023-07-09T17:50:58;4.05;;;1.10;;
78116;SDS011;69042;59.120;37.904;2023-07-09T17:53:26;3.90;;;0.90;;
78116;SDS011;69042;59.120;37.904;2023-07-09T17:55:54;4.03;;;1.00;;
78116;SDS011;69042;59.120;37.904;2023-07-09T17:58:21;3.55;;;0.85;;
78116;SDS011;69042;59.120;37.904;2023-07-09T18:01:27;3.30;;;0.95;;
78116;SDS011;69042;59.120;37.904;2023-07-09T18:04:19;3.50;;;1.10;;
78116;SDS011;69042;59.120;37.904;2023-07-09T18:06:47;4.68;;;1.10;;
78116;SDS011;69042;59.120;37.904;2023-07-09T18:09:33;4.30;;;1.00;;
78116;SDS011;69042;59.120;37.904;2023-07-09T18:12:27;3.72;;;1.00;;
78116;SDS011;69042;59.120;37.904;2023-07-09T18:14:55;3.70;;;1.00;;
78116;SDS011;69042;59.120;37.904;2023-07-09T18:20:26;5.05;;;1.20;;
78116;SDS011;69042;59.120;37.904;2023-07-09T18:22:52;5.50;;;1.20;;
78116;SDS011;69042;59.120;37.904;2023-07-09T18:25:38;3.80;;;1.10;;
78116;SDS011;69042;59.120;37.904;2023-07-09T18:28:06;10.68;;;4.43;;
78116;SDS011;69042;59.120;37.904;2023-07-09T18:30:55;3.85;;;1.30;;
78116;SDS011;69042;59.120;37.904;2023-07-09T18:36:24;3.35;;;0.88;;
78116;SDS011;69042;59.120;37.904;2023-07-09T18:39:09;2.38;;;0.80;;
78116;SDS011;69042;59.120;37.904;2023-07-09T18:41:35;2.53;;;0.73;;
78116;SDS011;69042;59.120;37.904;2023-07-09T18:44:07;3.58;;;0.70;;
78116;SDS011;69042;59.120;37.904;2023-07-09T18:46:54;1.38;;;0.52;;
78116;SDS011;69042;59.120;37.904;2023-07-09T18:52:42;2.72;;;0.77;;
78116;SDS011;69042;59.120;37.904;2023-07-09T18:55:14;3.80;;;1.00;;